sensor_id;sensor_type;location;lat;lon;timestamp;pressure;altitude;pressure_sealevel;temperature;humidity
19843;BME280;10082;51.038;6.992;2023-03-26T00:01:56;63766.19;;;-144.33;100.00
19843;BME280;10082;51.038;6.992;2023-03-26T00:04:24;60712.34;;;-144.33;100.00
19843;BME280;10082;51.038;6.992;2023-03-26T00:06:52;57915.06;;;-144.33;100.00
19843;BME280;10082;51.038;6.992;2023-03-26T00:09:22;56135.97;;;-144.33;100.00
19843;BME280;10082;51.038;6.992;2023-03-26T00:11:51;54103.72;;;-144.33;100.00
19843;BME280;10082;51.038;6.992;2023-03-26T00:14:21;53341.91;;;-144.33;100.00
19843;BME280;10082;51.038;6.992;2023-03-26T00:16:52;51564.88;;;-144.33;100.00
19843;BME280;10082;51.038;6.992;2023-03-26T00:19:19;48520.41;;;-144.33;100.00
19843;BME280;10082;51.038;6.992;2023-03-26T00:21:47;48266.81;;;-144.33;100.00
19843;BME280;10082;51.038;6.992;2023-03-26T00:24:17;47506.09;;;-144.33;100.00
19843;BME280;10082;51.038;6.992;2023-03-26T00:26:46;45985.16;;;-144.33;100.00
19843;BME280;10082;51.038;6.992;2023-03-26T00:29:18;44211.44;;;-144.33;100.00
19843;BME280;10082;51.038;6.992;2023-03-26T00:31:47;41932.09;;;-144.33;100.00
19843;BME280;10082;51.038;6.992;2023-03-26T00:34:14;42691.72;;;-144.33;100.00
19843;BME280;10082;51.038;6.992;2023-03-26T00:36:43;41425.78;;;-144.33;100.00
19843;BME280;10082;51.038;6.992;2023-03-26T00:39:11;39401.06;;;-144.33;100.00
19843;BME280;10082;51.038;6.992;2023-03-26T00:41:39;37124.53;;;-144.33;100.00
19843;BME280;10082;51.038;6.992;2023-03-26T00:44:11;35354.81;;;-144.33;100.00
19843;BME280;10082;51.038;6.992;2023-03-26T00:46:39;33838.53;;;-144.33;100.00
19843;BME280;10082;51.038;6.992;2023-03-26T00:49:08;32828.00;;;-144.33;100.00
19843;BME280;10082;51.038;6.992;2023-03-26T00:51:42;31565.22;;;-144.33;100.00
19843;BME280;10082;51.038;6.992;2023-03-26T00:54:09;30807.75;;;-144.33;100.00
19843;BME280;10082;51.038;6.992;2023-03-26T00:56:37;31312.72;;;-144.33;100.00
19843;BME280;10082;51.038;6.992;2023-03-26T00:59:06;31060.22;;;-144.33;100.00
19843;BME280;10082;51.038;6.992;2023-03-26T01:01:36;30555.28;;;-144.33;100.00
19843;BME280;10082;51.038;6.992;2023-03-26T01:04:20;29798.00;;;-144.33;100.00
19843;BME280;10082;51.038;6.992;2023-03-26T01:06:53;29545.59;;;-144.33;100.00
19843;BME280;10082;51.038;6.992;2023-03-26T01:09:24;28536.19;;;-144.33;100.00
19843;BME280;10082;51.038;6.992;2023-03-26T01:11:58;27274.78;;;-144.33;100.00
19843;BME280;10082;51.038;6.992;2023-03-26T01:14:27;26770.34;;;-144.33;100.00
19843;BME280;10082;51.038;6.992;2023-03-26T01:16:58;27274.78;;;-144.33;100.00
19843;BME280;10082;51.038;6.992;2023-03-26T01:19:29;26518.13;;;-144.33;100.00
19843;BME280;10082;51.038;6.992;2023-03-26T01:22:03;25761.63;;;-144.33;100.00
19843;BME280;10082;51.038;6.992;2023-03-26T01:24:33;25509.50;;;-144.33;100.00
19843;BME280;10082;51.038;6.992;2023-03-26T01:27:08;26013.78;;;-144.33;100.00
19843;BME280;10082;51.038;6.992;2023-03-26T01:29:42;26518.13;;;-144.33;100.00
19843;BME280;10082;51.038;6.992;2023-03-26T01:32:23;26265.94;;;-144.33;100.00
19843;BME280;10082;51.038;6.992;2023-03-26T01:35:06;27022.53;;;-144.33;100.00
19843;BME280;10082;51.038;6.992;2023-03-26T01:37:47;27274.78;;;-144.33;100.00
19843;BME280;10082;51.038;6.992;2023-03-26T01:40:27;27274.78;;;-144.33;100.00
19843;BME280;10082;51.038;6.992;2023-03-26T01:43:07;26518.13;;;-144.33;100.00
19843;BME280;10082;51.038;6.992;2023-03-26T01:45:39;25761.63;;;-144.33;100.00
19843;BME280;10082;51.038;6.992;2023-03-26T01:48:07;25005.28;;;-144.33;100.00
19843;BME280;10082;51.038;6.992;2023-03-26T01:50:35;23493.00;;;-144.33;100.00
19843;BME280;10082;51.038;6.992;2023-03-26T01:53:06;22737.09;;;-144.33;100.00
19843;BME280;10082;51.038;6.992;2023-03-26T01:55:45;23493.00;;;-144.33;100.00
19843;BME280;10082;51.038;6.992;2023-03-26T01:58:22;23997.03;;;-144.33;100.00
19843;BME280;10082;51.038;6.992;2023-03-26T02:00:59;24501.13;;;-144.33;100.00
19843;BME280;10082;51.038;6.992;2023-03-26T02:03:34;25005.28;;;-144.33;100.00
19843;BME280;10082;51.038;6.992;2023-03-26T02:06:09;26265.94;;;-144.33;100.00
19843;BME280;10082;51.038;6.992;2023-03-26T02:08:44;28031.56;;;-144.33;100.00
19843;BME280;10082;51.038;6.992;2023-03-26T02:11:14;29798.00;;;-144.33;100.00
19843;BME280;10082;51.038;6.992;2023-03-26T02:13:44;30050.41;;;-144.33;100.00
19843;BME280;10082;51.038;6.992;2023-03-26T02:16:14;31060.22;;;-144.33;100.00
19843;BME280;10082;51.038;6.992;2023-03-26T02:18:43;31817.75;;;-144.33;100.00
19843;BME280;10082;51.038;6.992;2023-03-26T02:21:13;32070.28;;;-144.33;100.00
19843;BME280;10082;51.038;6.992;2023-03-26T02:23:46;32575.41;;;-144.33;100.00
19843;BME280;10082;51.038;6.992;2023-03-26T02:26:18;32575.41;;;-144.33;100.00
19843;BME280;10082;51.038;6.992;2023-03-26T02:29:21;31817.75;;;-144.33;100.00
19843;BME280;10082;51.038;6.992;2023-03-26T02:31:49;32322.84;;;-144.33;100.00
19843;BME280;10082;51.038;6.992;2023-03-26T02:34:16;31565.22;;;-144.33;100.00
19843;BME280;10082;51.038;6.992;2023-03-26T02:36:49;31060.22;;;-144.33;100.00
19843;BME280;10082;51.038;6.992;2023-03-26T02:39:17;30807.75;;;-144.33;100.00
19843;BME280;10082;51.038;6.992;2023-03-26T02:41:55;30555.28;;;-144.33;100.00
19843;BME280;10082;51.038;6.992;2023-03-26T02:44:22;30050.41;;;-144.33;100.00
19843;BME280;10082;51.038;6.992;2023-03-26T02:46:59;30050.41;;;-144.33;100.00
19843;BME280;10082;51.038;6.992;2023-03-26T02:49:45;30555.28;;;-144.33;100.00
19843;BME280;10082;51.038;6.992;2023-03-26T02:52:21;30807.75;;;-144.33;100.00
19843;BME280;10082;51.038;6.992;2023-03-26T02:54:50;31565.22;;;-144.33;100.00
19843;BME280;10082;51.038;6.992;2023-03-26T02:57:24;31817.75;;;-144.33;100.00
19843;BME280;10082;51.038;6.992;2023-03-26T02:59:51;32322.84;;;-144.33;100.00
19843;BME280;10082;51.038;6.992;2023-03-26T03:02:36;33585.88;;;-144.33;100.00
19843;BME280;10082;51.038;6.992;2023-03-26T03:05:24;35102.06;;;-144.33;100.00
19843;BME280;10082;51.038;6.992;2023-03-26T03:08:26;38136.16;;;-144.33;100.00
19843;BME280;10082;51.038;6.992;2023-03-26T03:11:22;39907.16;;;-144.33;100.00
19843;BME280;10082;51.038;6.992;2023-03-26T03:13:52;38895.06;;;-144.33;100.00
19843;BME280;10082;51.038;6.992;2023-03-26T03:16:28;38895.06;;;-144.33;100.00
19843;BME280;10082;51.038;6.992;2023-03-26T03:18:58;40160.22;;;-144.33;100.00
19843;BME280;10082;51.038;6.992;2023-03-26T03:21:34;39907.16;;;-144.33;100.00
19843;BME280;10082;51.038;6.992;2023-03-26T03:24:02;42185.28;;;-144.33;100.00
19843;BME280;10082;51.038;6.992;2023-03-26T03:26:33;42944.97;;;-144.33;100.00
19843;BME280;10082;51.038;6.992;2023-03-26T03:29:24;42691.72;;;-144.33;100.00
19843;BME280;10082;51.038;6.992;2023-03-26T03:31:52;44211.44;;;-144.33;100.00
19843;BME280;10082;51.038;6.992;2023-03-26T03:34:35;43958.09;;;-144.33;100.00
19843;BME280;10082;51.038;6.992;2023-03-26T03:37:04;45478.28;;;-144.33;100.00
19843;BME280;10082;51.038;6.992;2023-03-26T03:39:39;45478.28;;;-144.33;100.00
19843;BME280;10082;51.038;6.992;2023-03-26T03:42:08;45478.28;;;-144.33;100.00
19843;BME280;10082;51.038;6.992;2023-03-26T03:44:38;44971.50;;;-144.33;100.00
19843;BME280;10082;51.038;6.992;2023-03-26T03:47:15;44211.44;;;-144.33;100.00
19843;BME280;10082;51.038;6.992;2023-03-26T03:49:43;43958.09;;;-144.33;100.00
19843;BME280;10082;51.038;6.992;2023-03-26T03:52:10;42944.97;;;-144.33;100.00
19843;BME280;10082;51.038;6.992;2023-03-26T03:54:40;42438.50;;;-144.33;100.00
19843;BME280;10082;51.038;6.992;2023-03-26T03:57:23;40919.50;;;-144.33;100.00
19843;BME280;10082;51.038;6.992;2023-03-26T04:00:02;39907.16;;;-144.33;100.00
19843;BME280;10082;51.038;6.992;2023-03-26T04:02:41;39654.09;;;-144.33;100.00
19843;BME280;10082;51.038;6.992;2023-03-26T04:05:12;38642.06;;;-144.33;100.00
19843;BME280;10082;51.038;6.992;2023-03-26T04:07:44;37377.41;;;-144.33;100.00
19843;BME280;10082;51.038;6.992;2023-03-26T04:10:36;34091.19;;;-144.33;100.00
19843;BME280;10082;51.038;6.992;2023-03-26T04:13:36;30555.28;;;-144.33;100.00
19843;BME280;10082;51.038;6.992;2023-03-26T04:16:16;26265.94;;;-144.33;100.00
19843;BME280;10082;51.038;6.992;2023-03-26T04:18:47;23241.03;;;-144.33;100.00
19843;BME280;10082;51.038;6.992;2023-03-26T04:21:15;20218.44;;;-144.33;100.00
19843;BME280;10082;51.038;6.992;2023-03-26T04:23:43;17701.41;;;-144.33;100.00
19843;BME280;10082;51.038;6.992;2023-03-26T04:26:34;14431.69;;;-144.33;100.00
19843;BME280;10082;51.038;6.992;2023-03-26T04:29:09;11918.41;;;-144.33;100.00
19843;BME280;10082;51.038;6.992;2023-03-26T04:31:43;8904.63;;;-144.33;100.00
19843;BME280;10082;51.038;6.992;2023-03-26T04:34:19;6394.91;;;-144.33;100.00
19843;BME280;10082;51.038;6.992;2023-03-26T04:37:02;4137.56;;;-144.33;100.00
19843;BME280;10082;51.038;6.992;2023-03-26T04:39:33;2382.78;;;-144.33;100.00
19843;BME280;10082;51.038;6.992;2023-03-26T04:42:22;628.78;;;-144.33;100.00
19843;BME280;10082;51.038;6.992;2023-03-26T04:45:07;-874.03;;;-144.33;100.00
19843;BME280;10082;51.038;6.992;2023-03-26T04:47:38;-1875.56;;;-144.33;100.00
19843;BME280;10082;51.038;6.992;2023-03-26T04:50:10;-2626.53;;;-144.33;100.00
19843;BME280;10082;51.038;6.992;2023-03-26T04:52:39;-3627.63;;;-144.33;100.00
19843;BME280;10082;51.038;6.992;2023-03-26T04:55:36;-4628.44;;;-144.33;100.00
19843;BME280;10082;51.038;6.992;2023-03-26T04:58:15;-5378.88;;;-144.33;100.00
19843;BME280;10082;51.038;6.992;2023-03-26T05:00:52;-6129.19;;;-144.33;100.00
19843;BME280;10082;51.038;6.992;2023-03-26T05:03:23;-6629.28;;;-144.33;100.00
19843;BME280;10082;51.038;6.992;2023-03-26T05:05:57;-7129.34;;;-144.33;100.00
19843;BME280;10082;51.038;6.992;2023-03-26T05:08:27;-7629.34;;;-144.33;100.00
19843;BME280;10082;51.038;6.992;2023-03-26T05:10:55;-8129.25;;;-144.33;100.00
19843;BME280;10082;51.038;6.992;2023-03-26T05:13:31;-8379.19;;;-144.33;100.00
19843;BME280;10082;51.038;6.992;2023-03-26T05:16:05;-8629.13;;;-144.33;100.00
19843;BME280;10082;51.038;6.992;2023-03-26T05:18:43;-8629.13;;;-144.33;100.00
19843;BME280;10082;51.038;6.992;2023-03-26T05:21:12;-9128.91;;;-144.33;100.00
19843;BME280;10082;51.038;6.992;2023-03-26T05:23:42;-9378.78;;;-144.33;100.00
19843;BME280;10082;51.038;6.992;2023-03-26T05:26:17;-9628.63;;;-144.33;100.00
19843;BME280;10082;51.038;6.992;2023-03-26T05:28:45;-9878.47;;;-144.33;100.00
19843;BME280;10082;51.038;6.992;2023-03-26T05:31:24;-9878.47;;;-144.33;100.00
19843;BME280;10082;51.038;6.992;2023-03-26T05:33:58;-10128.28;;;-144.33;100.00
19843;BME280;10082;51.038;6.992;2023-03-26T05:36:26;-10378.09;;;-144.33;100.00
19843;BME280;10082;51.038;6.992;2023-03-26T05:39:22;-10378.09;;;-144.33;100.00
19843;BME280;10082;51.038;6.992;2023-03-26T05:42:17;-10378.09;;;-144.33;100.00
19843;BME280;10082;51.038;6.992;2023-03-26T05:44:59;-10627.88;;;-144.33;100.00
19843;BME280;10082;51.038;6.992;2023-03-26T05:47:31;-10627.88;;;-144.33;100.00
19843;BME280;10082;51.038;6.992;2023-03-26T05:50:01;-10627.88;;;-144.33;100.00
19843;BME280;10082;51.038;6.992;2023-03-26T05:52:37;-10627.88;;;-144.33;100.00
19843;BME280;10082;51.038;6.992;2023-03-26T05:55:27;-10627.88;;;-144.33;100.00
19843;BME280;10082;51.038;6.992;2023-03-26T05:58:33;-10877.66;;;-144.33;100.00
19843;BME280;10082;51.038;6.992;2023-03-26T06:01:31;-11127.41;;;-144.33;100.00
19843;BME280;10082;51.038;6.992;2023-03-26T06:04:19;-11377.16;;;-144.33;100.00
19843;BME280;10082;51.038;6.992;2023-03-26T06:07:05;-11377.16;;;-144.33;100.00
19843;BME280;10082;51.038;6.992;2023-03-26T06:09:35;-11626.88;;;-144.33;100.00
19843;BME280;10082;51.038;6.992;2023-03-26T06:12:07;-12126.28;;;-144.33;100.00
19843;BME280;10082;51.038;6.992;2023-03-26T06:14:36;-12375.97;;;-144.33;100.00
19843;BME280;10082;51.038;6.992;2023-03-26T06:17:28;-12210.16;;;-144.33;100.00
19843;BME280;10082;51.038;6.992;2023-03-26T06:20:09;-11098.16;;;-144.33;100.00
19843;BME280;10082;51.038;6.992;2023-03-26T06:22:42;-10852.28;;;-144.33;100.00
19843;BME280;10082;51.038;6.992;2023-03-26T06:25:37;-10795.72;;;-144.33;100.00
19843;BME280;10082;51.038;6.992;2023-03-26T06:28:43;-10684.47;;;-144.33;100.00
19843;BME280;10082;51.038;6.992;2023-03-26T06:31:52;-10432.75;;;-144.33;100.00
19843;BME280;10082;51.038;6.992;2023-03-26T06:34:25;-9370.97;;;-144.33;100.00
19843;BME280;10082;51.038;6.992;2023-03-26T06:36:53;-8558.81;;;-144.33;100.00
19843;BME280;10082;51.038;6.992;2023-03-26T06:39:23;-6953.56;;;-144.33;100.00
19843;BME280;10082;51.038;6.992;2023-03-26T06:42:09;-5341.75;;;-144.33;100.00
19843;BME280;10082;51.038;6.992;2023-03-26T06:45:00;-4262.94;;;-144.33;100.00
19843;BME280;10082;51.038;6.992;2023-03-26T06:47:34;-3068.44;;;-144.33;100.00
19843;BME280;10082;51.038;6.992;2023-03-26T06:50:34;-1400.25;;;-144.33;100.00
19843;BME280;10082;51.038;6.992;2023-03-26T06:53:23;405.66;;;-144.33;100.00
19843;BME280;10082;51.038;6.992;2023-03-26T06:56:18;2051.88;;;-144.33;100.00
19843;BME280;10082;51.038;6.992;2023-03-26T06:59:33;4300.16;;;-144.33;100.00
19843;BME280;10082;51.038;6.992;2023-03-26T07:02:20;5995.09;;;-144.33;100.00
19843;BME280;10082;51.038;6.992;2023-03-26T07:05:06;7649.56;;;-144.33;100.00
19843;BME280;10082;51.038;6.992;2023-03-26T07:07:52;9194.91;;;-144.33;100.00
19843;BME280;10082;51.038;6.992;2023-03-26T07:10:40;10715.38;;;-144.33;100.00
19843;BME280;10082;51.038;6.992;2023-03-26T07:13:26;12432.72;;;-144.33;100.00
19843;BME280;10082;51.038;6.992;2023-03-26T07:16:32;13944.63;;;-144.33;100.00
19843;BME280;10082;51.038;6.992;2023-03-26T07:19:08;15433.53;;;-144.33;100.00
19843;BME280;10082;51.038;6.992;2023-03-26T07:21:47;16812.97;;;-144.33;100.00
19843;BME280;10082;51.038;6.992;2023-03-26T07:24:34;18387.53;;;-144.33;100.00
19843;BME280;10082;51.038;6.992;2023-03-26T07:27:14;19809.31;;;-144.33;100.00
19843;BME280;10082;51.038;6.992;2023-03-26T07:29:48;21501.16;;;-144.33;100.00
19843;BME280;10082;51.038;6.992;2023-03-26T07:32:39;23390.63;;;-144.33;100.00
19843;BME280;10082;51.038;6.992;2023-03-26T07:35:31;25154.97;;;-144.33;100.00
19843;BME280;10082;51.038;6.992;2023-03-26T07:38:32;27142.75;;;-144.33;100.00
19843;BME280;10082;51.038;6.992;2023-03-26T07:41:34;28749.09;;;-144.33;100.00
19843;BME280;10082;51.038;6.992;2023-03-26T07:44:34;30981.31;;;-144.33;100.00
19843;BME280;10082;51.038;6.992;2023-03-26T07:47:35;33080.63;;;-144.33;100.00
19843;BME280;10082;51.038;6.992;2023-03-26T07:50:16;34873.00;;;-144.33;100.00
19843;BME280;10082;51.038;6.992;2023-03-26T07:53:16;36040.09;;;-144.33;100.00
19843;BME280;10082;51.038;6.992;2023-03-26T07:56:09;37954.38;;;-144.33;100.00
19843;BME280;10082;51.038;6.992;2023-03-26T07:59:00;40654.53;;;-144.33;100.00
19843;BME280;10082;51.038;6.992;2023-03-26T08:04:54;44718.13;;;-144.33;100.00
19843;BME280;10082;51.038;6.992;2023-03-26T08:08:01;46559.41;;;-144.33;100.00
19843;BME280;10082;51.038;6.992;2023-03-26T08:10:43;48336.16;;;-144.33;100.00
19843;BME280;10082;51.038;6.992;2023-03-26T08:13:22;49778.75;;;-144.33;100.00
19843;BME280;10082;51.038;6.992;2023-03-26T08:15:55;51190.13;;;-144.33;100.00
19843;BME280;10082;51.038;6.992;2023-03-26T08:18:39;53036.41;;;-144.33;100.00
19843;BME280;10082;51.038;6.992;2023-03-26T08:21:12;54714.88;;;-144.33;100.00
19843;BME280;10082;51.038;6.992;2023-03-26T08:23:53;56245.16;;;-144.33;100.00
19843;BME280;10082;51.038;6.992;2023-03-26T08:26:32;58014.34;;;-144.33;100.00
19843;BME280;10082;51.038;6.992;2023-03-26T08:29:09;58834.69;;;-144.33;100.00
19843;BME280;10082;51.038;6.992;2023-03-26T08:31:43;58737.34;;;-144.33;100.00
19843;BME280;10082;51.038;6.992;2023-03-26T08:34:11;59508.16;;;-144.33;100.00
19843;BME280;10082;51.038;6.992;2023-03-26T08:36:40;59279.69;;;-144.33;100.00
19843;BME280;10082;51.038;6.992;2023-03-26T08:39:08;59424.72;;;-144.33;100.00
19843;BME280;10082;51.038;6.992;2023-03-26T08:42:10;60605.03;;;-144.33;100.00
19843;BME280;10082;51.038;6.992;2023-03-26T08:48:15;62350.31;;;-144.33;100.00
19843;BME280;10082;51.038;6.992;2023-03-26T08:51:15;62821.56;;;-144.33;100.00
19843;BME280;10082;51.038;6.992;2023-03-26T08:54:19;62211.16;;;-144.33;100.00
19843;BME280;10082;51.038;6.992;2023-03-26T08:57:02;60992.59;;;-144.33;100.00
19843;BME280;10082;51.038;6.992;2023-03-26T09:00:00;61002.53;;;-144.33;100.00
19843;BME280;10082;51.038;6.992;2023-03-26T09:05:52;62696.28;;;-144.33;100.00
19843;BME280;10082;51.038;6.992;2023-03-26T09:08:55;63911.41;;;-144.33;100.00
19843;BME280;10082;51.038;6.992;2023-03-26T09:11:47;64726.97;;;-144.33;100.00
19843;BME280;10082;51.038;6.992;2023-03-26T09:17:47;65321.84;;;-144.33;100.00
19843;BME280;10082;51.038;6.992;2023-03-26T09:20:44;65069.16;;;-144.33;100.00
19843;BME280;10082;51.038;6.992;2023-03-26T09:26:32;64703.09;;;-144.33;100.00
19843;BME280;10082;51.038;6.992;2023-03-26T09:35:52;65586.50;;;-144.33;100.00
19843;BME280;10082;51.038;6.992;2023-03-26T09:38:38;65530.78;;;-144.33;100.00
19843;BME280;10082;51.038;6.992;2023-03-26T09:44:22;65313.91;;;-144.33;100.00
19843;BME280;10082;51.038;6.992;2023-03-26T09:47:29;65550.69;;;-144.33;100.00
19843;BME280;10082;51.038;6.992;2023-03-26T09:50:25;65616.34;;;-144.33;100.00
19843;BME280;10082;51.038;6.992;2023-03-26T09:53:04;66292.97;;;-144.33;100.00
19843;BME280;10082;51.038;6.992;2023-03-26T09:55:52;66460.13;;;-144.33;100.00
19843;BME280;10082;51.038;6.992;2023-03-26T09:58:45;67097.09;;;-144.33;100.00
19843;BME280;10082;51.038;6.992;2023-03-26T10:01:19;67746.06;;;-144.33;100.00
19843;BME280;10082;51.038;6.992;2023-03-26T10:04:20;67961.09;;;-144.33;100.00
19843;BME280;10082;51.038;6.992;2023-03-26T10:06:56;68299.59;;;-144.33;100.00
19843;BME280;10082;51.038;6.992;2023-03-26T10:09:42;68689.88;;;-144.33;100.00
19843;BME280;10082;51.038;6.992;2023-03-26T10:12:28;68899.00;;;-144.33;100.00
19843;BME280;10082;51.038;6.992;2023-03-26T10:15:07;69231.59;;;-144.33;100.00
19843;BME280;10082;51.038;6.992;2023-03-26T10:17:54;69865.00;;;-144.33;100.00
19843;BME280;10082;51.038;6.992;2023-03-26T10:20:36;69980.53;;;-144.33;100.00
19843;BME280;10082;51.038;6.992;2023-03-26T10:23:28;70187.72;;;-144.33;100.00
19843;BME280;10082;51.038;6.992;2023-03-26T10:26:07;71048.41;;;-144.33;100.00
19843;BME280;10082;51.038;6.992;2023-03-26T10:29:03;71014.53;;;-144.33;100.00
19843;BME280;10082;51.038;6.992;2023-03-26T10:31:51;71650.22;;;-144.33;100.00
19843;BME280;10082;51.038;6.992;2023-03-26T10:34:43;72132.53;;;-144.33;100.00
19843;BME280;10082;51.038;6.992;2023-03-26T10:37:24;72168.41;;;-144.33;100.00
19843;BME280;10082;51.038;6.992;2023-03-26T10:40:08;72359.75;;;-144.33;100.00
19843;BME280;10082;51.038;6.992;2023-03-26T10:43:16;72594.94;;;-144.33;100.00
19843;BME280;10082;51.038;6.992;2023-03-26T10:46:02;72953.78;;;-144.33;100.00
19843;BME280;10082;51.038;6.992;2023-03-26T10:48:49;73157.13;;;-144.33;100.00
19843;BME280;10082;51.038;6.992;2023-03-26T10:51:44;73332.56;;;-144.33;100.00
19843;BME280;10082;51.038;6.992;2023-03-26T10:54:25;73601.72;;;-144.33;100.00
19843;BME280;10082;51.038;6.992;2023-03-26T10:56:56;74026.44;;;-144.33;100.00
19843;BME280;10082;51.038;6.992;2023-03-26T10:59:25;74511.03;;;-144.33;100.00
19843;BME280;10082;51.038;6.992;2023-03-26T11:02:03;74201.91;;;-144.33;100.00
19843;BME280;10082;51.038;6.992;2023-03-26T11:04:40;74211.88;;;-144.33;100.00
19843;BME280;10082;51.038;6.992;2023-03-26T11:07:20;74313.59;;;-144.33;100.00
19843;BME280;10082;51.038;6.992;2023-03-26T11:09:57;74570.84;;;-144.33;100.00
19843;BME280;10082;51.038;6.992;2023-03-26T11:12:31;74481.09;;;-144.33;100.00
19843;BME280;10082;51.038;6.992;2023-03-26T11:15:12;74620.72;;;-144.33;100.00
19843;BME280;10082;51.038;6.992;2023-03-26T11:17:51;73862.91;;;-144.33;100.00
19843;BME280;10082;51.038;6.992;2023-03-26T11:20:31;74221.84;;;-144.33;100.00
19843;BME280;10082;51.038;6.992;2023-03-26T11:23:13;73035.50;;;-144.33;100.00
19843;BME280;10082;51.038;6.992;2023-03-26T11:25:58;73663.53;;;-144.33;100.00
19843;BME280;10082;51.038;6.992;2023-03-26T11:28:52;72949.78;;;-144.33;100.00
19843;BME280;10082;51.038;6.992;2023-03-26T11:31:32;72602.91;;;-144.33;100.00
19843;BME280;10082;51.038;6.992;2023-03-26T11:34:09;72102.63;;;-144.33;100.00
19843;BME280;10082;51.038;6.992;2023-03-26T11:36:41;71682.09;;;-144.33;100.00
19843;BME280;10082;51.038;6.992;2023-03-26T11:39:11;71867.44;;;-144.33;100.00
19843;BME280;10082;51.038;6.992;2023-03-26T11:41:41;70881.03;;;-144.33;100.00
19843;BME280;10082;51.038;6.992;2023-03-26T11:44:31;70400.88;;;-144.33;100.00
19843;BME280;10082;51.038;6.992;2023-03-26T11:47:03;70008.41;;;-144.33;100.00
19843;BME280;10082;51.038;6.992;2023-03-26T11:49:35;69558.25;;;-144.33;100.00
19843;BME280;10082;51.038;6.992;2023-03-26T11:52:03;68560.44;;;-144.33;100.00
19843;BME280;10082;51.038;6.992;2023-03-26T11:54:32;68038.75;;;-144.33;100.00
19843;BME280;10082;51.038;6.992;2023-03-26T11:57:05;67726.16;;;-144.33;100.00
19843;BME280;10082;51.038;6.992;2023-03-26T11:59:37;67236.44;;;-144.33;100.00
19843;BME280;10082;51.038;6.992;2023-03-26T12:02:18;66296.94;;;-144.33;100.00
19843;BME280;10082;51.038;6.992;2023-03-26T12:04:51;65371.59;;;-144.33;100.00
19843;BME280;10082;51.038;6.992;2023-03-26T12:07:22;64725.00;;;-144.33;100.00
19843;BME280;10082;51.038;6.992;2023-03-26T12:09:50;64906.03;;;-144.33;100.00
19843;BME280;10082;51.038;6.992;2023-03-26T12:12:19;62986.59;;;-144.33;100.00
19843;BME280;10082;51.038;6.992;2023-03-26T12:14:47;61429.88;;;-144.33;100.00
19843;BME280;10082;51.038;6.992;2023-03-26T12:17:24;63097.97;;;-144.33;100.00
19843;BME280;10082;51.038;6.992;2023-03-26T12:19:53;62316.53;;;-144.33;100.00
19843;BME280;10082;51.038;6.992;2023-03-26T12:22:29;62048.13;;;-144.33;100.00
19843;BME280;10082;51.038;6.992;2023-03-26T12:25:02;59919.44;;;-144.33;100.00
19843;BME280;10082;51.038;6.992;2023-03-26T12:27:44;58685.69;;;-144.33;100.00
19843;BME280;10082;51.038;6.992;2023-03-26T12:30:21;60509.63;;;-144.33;100.00
19843;BME280;10082;51.038;6.992;2023-03-26T12:32:51;59746.59;;;-144.33;100.00
19843;BME280;10082;51.038;6.992;2023-03-26T12:35:24;61030.34;;;-144.33;100.00
19843;BME280;10082;51.038;6.992;2023-03-26T12:38:20;56568.75;;;-144.33;100.00
19843;BME280;10082;51.038;6.992;2023-03-26T12:41:03;57722.41;;;-144.33;100.00
19843;BME280;10082;51.038;6.992;2023-03-26T12:43:38;63133.75;;;-144.33;100.00
19843;BME280;10082;51.038;6.992;2023-03-26T12:46:21;58761.19;;;-144.33;100.00
19843;BME280;10082;51.038;6.992;2023-03-26T12:48:50;51913.88;;;-144.33;100.00
19843;BME280;10082;51.038;6.992;2023-03-26T12:51:27;54829.97;;;-144.33;100.00
19843;BME280;10082;51.038;6.992;2023-03-26T12:54:11;50434.81;;;-144.33;100.00
19843;BME280;10082;51.038;6.992;2023-03-26T12:56:47;46769.31;;;-144.33;100.00
19843;BME280;10082;51.038;6.992;2023-03-26T12:59:38;41006.50;;;-144.33;100.00
19843;BME280;10082;51.038;6.992;2023-03-26T13:02:26;38308.09;;;-144.33;100.00
19843;BME280;10082;51.038;6.992;2023-03-26T13:05:12;36148.72;;;-144.33;100.00
19843;BME280;10082;51.038;6.992;2023-03-26T13:07:56;29068.47;;;-144.33;100.00
19843;BME280;10082;51.038;6.992;2023-03-26T13:10:34;25162.84;;;-144.33;100.00
19843;BME280;10082;51.038;6.992;2023-03-26T13:13:32;24595.66;;;-144.33;100.00
19843;BME280;10082;51.038;6.992;2023-03-26T13:16:12;23955.69;;;-144.33;100.00
19843;BME280;10082;51.038;6.992;2023-03-26T13:18:46;22398.56;;;-144.33;100.00
19843;BME280;10082;51.038;6.992;2023-03-26T13:21:23;23792.25;;;-144.33;100.00
19843;BME280;10082;51.038;6.992;2023-03-26T13:24:00;26423.56;;;-144.33;100.00
19843;BME280;10082;51.038;6.992;2023-03-26T13:26:47;29249.84;;;-144.33;100.00
19843;BME280;10082;51.038;6.992;2023-03-26T13:29:28;31719.09;;;-144.33;100.00
19843;BME280;10082;51.038;6.992;2023-03-26T13:32:08;35100.06;;;-144.33;100.00
19843;BME280;10082;51.038;6.992;2023-03-26T13:34:47;35860.38;;;-144.33;100.00
19843;BME280;10082;51.038;6.992;2023-03-26T13:37:22;34156.34;;;-144.33;100.00
19843;BME280;10082;51.038;6.992;2023-03-26T13:40:02;38381.22;;;-144.33;100.00
19843;BME280;10082;51.038;6.992;2023-03-26T13:42:46;36911.19;;;-144.33;100.00
19843;BME280;10082;51.038;6.992;2023-03-26T13:45:32;38930.63;;;-144.33;100.00
19843;BME280;10082;51.038;6.992;2023-03-26T13:48:15;43132.94;;;-144.33;100.00
19843;BME280;10082;51.038;6.992;2023-03-26T13:50:56;44678.53;;;-144.33;100.00
19843;BME280;10082;51.038;6.992;2023-03-26T13:53:33;39911.09;;;-144.33;100.00
19843;BME280;10082;51.038;6.992;2023-03-26T13:56:14;41496.97;;;-144.33;100.00
19843;BME280;10082;51.038;6.992;2023-03-26T13:58:48;44173.81;;;-144.33;100.00